< Typhoon 202204 2022 Season Typhoon 202206 >
Typhoon 202205 (SONGDA)
General InformationDetailed Track InformationTrack Information on Google MapsForecast History on Google MapsAccess Analytics MapList of All Images || NewsDisaster Info.WeblogTrackbackTyphoon FrontTwiphoonTyphoon Now!Typhoon ImaginationJMA Disaster Info. XMLResourceGoogle EarthGE AnimationAtom FeedGeoJSON
Detalied Best Track Wind (Time Zone = UTC)
Year Month Day Hour Lat. Long. Wind (kt) Gust (kt) Direc. of Major Storm Axis Radius of Major Storm Axis (nm) Radius of Minor Storm Axis (nm) Direc. of Major Gale Axis Radius of Major Gale Axis (nm) Radius of Minor Gale Axis (nm) Image
2022 7 26 12 15.5 143.4 30 45 - - - - - - Image
2022 7 26 15 15.9 143.4 30 45 - - - - - - Image
2022 7 26 18 16.6 142.9 30 45 - - - - - - Image
2022 7 26 21 17.1 142.8 30 45 - - - - - - Image
2022 7 27 00 16.3 142.4 30 45 - - - - - - Image
2022 7 27 03 15.9 142.2 30 45 - - - - - - Image
2022 7 27 06 15.8 141.9 30 45 - - - - - - Image
2022 7 27 09 16.3 141.6 30 45 - - - - - - Image
2022 7 27 12 17.1 141.1 30 45 - - - - - - Image
2022 7 27 15 17.9 140.7 30 45 - - - - - - Image
2022 7 27 18 18.6 140.3 30 45 - - - - - - Image
2022 7 27 21 19.0 140.1 30 45 - - - - - - Image
2022 7 28 00 19.3 139.6 30 45 - - - - - - Image
2022 7 28 03 19.8 139.6 30 45 - - - - - - Image
2022 7 28 06 20.6 139.6 30 45 - - - - - - Image
2022 7 28 09 21.9 139.1 30 45 - - - - - - Image
2022 7 28 12 22.5 139.0 35 50 - - - NE 300 150 Image
2022 7 28 15 24.2 138.0 35 50 - - - NE 300 150 Image
2022 7 28 18 25.3 137.7 35 50 - - - N 300 200 Image
2022 7 28 21 26.4 136.6 35 50 - - - N 300 200 Image
2022 7 29 00 27.6 135.2 35 50 - - - N 300 200 Image
2022 7 29 03 28.6 133.7 35 50 - - - N 300 200 Image
2022 7 29 06 29.1 132.1 35 50 - - - N 300 200 Image
2022 7 29 09 29.6 131.1 35 50 - - - N 300 200 Image
2022 7 29 12 29.6 130.1 40 60 - - - NE 300 200 Image
2022 7 29 15 30.4 129.1 40 60 - - - NE 300 200 Image
2022 7 29 18 31.0 128.6 35 50 - - - NE 180 120 Image
2022 7 29 21 31.3 127.4 35 50 - - - NE 180 120 Image
2022 7 30 00 31.4 126.2 35 50 - - - NE 180 120 Image
2022 7 30 03 31.6 125.3 35 50 - - - NE 180 120 Image
2022 7 30 06 32.0 124.9 35 50 - - - NE 180 90 Image
2022 7 30 09 32.4 124.6 35 50 - - - NE 180 90 Image
2022 7 30 12 32.7 124.3 35 50 - - - NE 180 90 Image
2022 7 30 15 33.1 123.8 35 50 - - - NE 180 90 Image
2022 7 30 18 33.3 123.5 35 50 - - - NE 150 90 Image
2022 7 30 21 33.5 123.3 35 50 - - - NE 150 90 Image
2022 7 31 00 33.5 123.1 35 50 - - - NE 150 90 Image
2022 7 31 03 33.5 123.0 35 50 - - - NE 150 90 Image
2022 7 31 06 34.1 123.3 35 50 - - - NE 150 90 Image
2022 7 31 09 34.2 123.1 35 50 - - - NE 150 90 Image
2022 7 31 12 34.5 123.1 35 50 - - - NE 150 90 Image
2022 7 31 15 34.5 123.1 35 50 - - - NE 150 90 Image
2022 7 31 18 35.0 123.0 0 0 - - - - - - Image
Japan Meteorological Agency Best Track Data | Correction Date : 2022-07-31
< Typhoon 202204 2022 Season Typhoon 202206 >

Help